createdAt,value
2019-04-11T04:00:38.688Z,2.06
2019-04-11T04:01:38.125Z,2.00
2019-04-11T04:02:37.232Z,2.02
2019-04-11T04:03:36.779Z,2.10
2019-04-11T04:04:37.099Z,2.10
2019-04-11T04:05:36.895Z,2.15
2019-04-11T04:06:37.380Z,2.18
2019-04-11T04:07:36.053Z,2.25
2019-04-11T04:08:44.459Z,2.25
2019-04-11T04:09:37.253Z,2.28
2019-04-11T04:10:36.212Z,2.29
2019-04-11T04:11:35.961Z,2.28
2019-04-11T04:12:37.696Z,2.36
2019-04-11T04:13:36.786Z,2.39
2019-04-11T04:14:37.186Z,2.39
2019-04-11T04:15:44.216Z,2.47
2019-04-11T04:16:44.735Z,2.49
2019-04-11T04:17:36.850Z,2.67
2019-04-11T04:18:43.725Z,2.62
2019-04-11T04:19:43.819Z,2.56
2019-04-11T04:20:37.030Z,2.56
2019-04-11T04:21:35.803Z,2.54
2019-04-11T04:22:37.610Z,2.56
2019-04-11T04:23:37.805Z,2.54
2019-04-11T04:24:39.781Z,2.54
2019-04-11T04:25:36.739Z,2.51
2019-04-11T04:26:35.768Z,2.64
2019-04-11T04:27:36.020Z,2.67
2019-04-11T04:28:37.498Z,2.64
2019-04-11T04:29:37.673Z,2.64
2019-04-11T04:30:36.160Z,2.64
2019-04-11T04:31:35.718Z,2.74
2019-04-11T04:32:36.293Z,2.68
2019-04-11T04:33:37.750Z,2.68
2019-04-11T04:34:36.509Z,2.69
2019-04-11T04:35:36.363Z,2.79
2019-04-11T04:36:35.653Z,2.75
2019-04-11T04:37:35.638Z,2.74
2019-04-11T04:38:37.640Z,2.71
2019-04-11T04:39:37.053Z,2.77
2019-04-11T04:40:54.159Z,2.74
2019-04-11T04:41:43.386Z,2.71
2019-04-11T04:42:43.072Z,2.80
2019-04-11T04:43:36.640Z,2.83
2019-04-11T04:44:35.568Z,2.80
2019-04-11T04:45:55.193Z,2.79
2019-04-11T04:46:52.509Z,2.85
2019-04-11T04:47:46.184Z,2.82
2019-04-11T04:48:38.030Z,2.80
2019-04-11T04:49:36.498Z,2.82
2019-04-11T04:50:36.643Z,2.86
2019-04-11T04:51:37.118Z,2.87
2019-04-11T04:52:36.716Z,2.87
2019-04-11T04:53:35.712Z,2.86
2019-04-11T04:54:36.487Z,2.90
2019-04-11T04:55:36.740Z,2.89
2019-04-11T04:56:36.919Z,2.87
2019-04-11T04:57:37.398Z,2.95
2019-04-11T04:58:35.429Z,2.95
2019-04-11T04:59:37.495Z,3.00
2019-04-11T05:00:35.404Z,2.92
2019-04-11T05:01:37.165Z,3.01
2019-04-11T05:02:37.151Z,3.08
2019-04-11T05:03:35.599Z,3.04
2019-04-11T05:04:36.114Z,3.04
2019-04-11T05:05:35.740Z,3.10
2019-04-11T05:06:36.498Z,3.10
2019-04-11T05:07:40.167Z,3.23
2019-04-11T05:08:36.372Z,3.23
2019-04-11T05:09:36.171Z,3.22
2019-04-11T05:10:35.948Z,3.23
2019-04-11T05:11:36.151Z,3.36
2019-04-11T05:12:36.561Z,3.36
2019-04-11T05:13:36.653Z,3.36
2019-04-11T05:14:35.248Z,3.51
2019-04-11T05:15:36.479Z,3.48
2019-04-11T05:16:35.732Z,3.47
2019-04-11T05:17:36.319Z,3.48
2019-04-11T05:18:36.198Z,3.53
2019-04-11T05:19:35.191Z,3.62
2019-04-11T05:20:36.312Z,3.63
2019-04-11T05:21:35.233Z,3.69
2019-04-11T05:22:35.288Z,3.66
2019-04-11T05:23:35.149Z,3.74
2019-04-11T05:24:35.142Z,3.78
2019-04-11T05:25:35.130Z,3.88
2019-04-11T05:26:35.490Z,3.92
2019-04-11T05:27:35.754Z,3.98
2019-04-11T05:28:35.365Z,4.01
2019-04-11T05:29:35.619Z,4.02
2019-04-11T05:30:36.329Z,4.19
2019-04-11T05:31:35.068Z,4.14
2019-04-11T05:32:35.396Z,4.30
2019-04-11T05:33:35.057Z,4.30
2019-04-11T05:34:35.222Z,4.37
2019-04-11T05:35:36.171Z,4.48
2019-04-11T05:36:35.014Z,4.59
2019-04-11T05:37:36.180Z,4.94
2019-04-11T05:38:35.956Z,5.11
2019-04-11T05:39:35.917Z,5.33
2019-04-11T05:40:34.997Z,6.41
2019-04-11T05:41:34.960Z,7.83
2019-04-11T05:42:35.540Z,8.74
2019-04-11T05:43:37.322Z,9.18
2019-04-11T05:44:37.586Z,9.64
2019-04-11T05:45:35.924Z,10.22
2019-04-11T05:46:47.292Z,11.32
2019-04-11T05:47:35.892Z,12.57
2019-04-11T05:48:34.886Z,13.52
2019-04-11T05:49:38.454Z,14.32
2019-04-11T05:50:36.170Z,14.99
2019-04-11T05:51:40.882Z,15.57
2019-04-11T05:52:36.674Z,16.17
2019-04-11T05:53:36.598Z,16.84
2019-04-11T05:54:36.472Z,17.27
2019-04-11T05:55:34.808Z,17.72
2019-04-11T05:56:35.438Z,18.19
2019-04-11T05:57:38.095Z,18.44
2019-04-11T05:58:34.774Z,18.83
2019-04-11T05:59:34.829Z,19.11
2019-04-11T06:00:34.771Z,19.41
2019-04-11T06:01:34.761Z,19.67
2019-04-11T06:02:35.327Z,19.92
2019-04-11T06:03:39.429Z,20.11
2019-04-11T06:04:36.366Z,20.47
2019-04-11T06:05:36.022Z,20.69
2019-04-11T06:06:38.558Z,20.88
2019-04-11T06:07:40.067Z,20.95
2019-04-11T06:08:35.768Z,21.12
2019-04-11T06:09:38.171Z,21.25
2019-04-11T06:10:37.049Z,21.39
2019-04-11T06:11:36.867Z,21.57
2019-04-11T06:12:35.902Z,21.70
2019-04-11T06:13:34.616Z,21.73
2019-04-11T06:14:35.385Z,21.89
2019-04-11T06:15:36.315Z,22.02
2019-04-11T06:16:39.537Z,22.11
2019-04-11T06:17:36.520Z,22.22
2019-04-11T06:18:37.789Z,22.47
2019-04-11T06:19:35.549Z,22.59
2019-04-11T06:20:35.583Z,22.70
2019-04-11T06:21:34.544Z,22.80
2019-04-11T06:22:34.561Z,22.88
2019-04-11T06:23:35.088Z,22.94
2019-04-11T06:24:34.495Z,22.99
2019-04-11T06:25:37.184Z,23.08
2019-04-11T06:26:34.603Z,23.09
2019-04-11T06:27:36.056Z,23.09
2019-04-11T06:28:34.479Z,23.25
2019-04-11T06:29:34.888Z,23.17
2019-04-11T06:30:34.651Z,23.18
2019-04-11T06:31:34.432Z,23.23
2019-04-11T06:32:34.409Z,23.25
2019-04-11T06:33:34.538Z,23.32
2019-04-11T06:34:35.477Z,23.39
2019-04-11T06:35:34.387Z,23.34
2019-04-11T06:36:41.902Z,23.39
2019-04-11T06:37:41.896Z,23.39
2019-04-11T06:38:42.853Z,23.43
2019-04-11T06:39:41.882Z,23.46
2019-04-11T06:40:34.699Z,23.48
2019-04-11T06:41:34.759Z,23.43
2019-04-11T06:42:35.040Z,23.34
2019-04-11T06:43:34.296Z,23.28
2019-04-11T06:44:34.325Z,23.32
2019-04-11T06:45:34.269Z,23.32
2019-04-11T06:46:35.420Z,23.48
2019-04-11T06:47:35.264Z,23.61
2019-04-11T06:48:34.254Z,23.80
2019-04-11T06:49:34.251Z,23.80
2019-04-11T06:50:35.377Z,24.01
2019-04-11T06:51:34.200Z,24.03
2019-04-11T06:52:34.962Z,23.96
2019-04-11T06:53:34.390Z,23.81
2019-04-11T06:54:34.176Z,23.51
2019-04-11T06:55:35.034Z,23.37
2019-04-11T06:56:34.883Z,23.20
2019-04-11T06:57:34.232Z,23.03
2019-04-11T06:58:35.142Z,22.91
2019-04-11T06:59:34.482Z,22.87
2019-04-11T07:00:34.105Z,22.78
2019-04-11T07:01:34.271Z,22.53
2019-04-11T07:02:34.182Z,21.55
2019-04-11T07:03:34.074Z,21.07
2019-04-11T07:04:34.070Z,20.84
2019-04-11T07:05:35.155Z,20.81
2019-04-11T07:06:34.033Z,20.74
2019-04-11T07:07:35.976Z,20.81
2019-04-11T07:08:34.257Z,20.93
2019-04-11T07:09:34.945Z,20.84
2019-04-11T07:10:34.186Z,20.28
2019-04-11T07:11:34.190Z,19.91
2019-04-11T07:12:34.949Z,20.25
2019-04-11T07:13:33.959Z,20.69
2019-04-11T07:14:33.944Z,20.93
2019-04-11T07:15:33.945Z,21.07
2019-04-11T07:16:34.117Z,21.22
2019-04-11T07:17:33.962Z,21.29
2019-04-11T07:18:33.921Z,21.40
2019-04-11T07:19:35.120Z,21.35
2019-04-11T07:20:33.877Z,21.25
2019-04-11T07:21:33.872Z,21.32
2019-04-11T07:22:34.783Z,21.25
2019-04-11T07:23:33.848Z,21.27
2019-04-11T07:24:33.848Z,21.21
2019-04-11T07:25:33.820Z,21.20
2019-04-11T07:26:35.035Z,21.14
2019-04-11T07:27:34.539Z,21.09
2019-04-11T07:28:33.792Z,21.03
2019-04-11T07:29:33.866Z,20.97
2019-04-11T07:30:33.772Z,20.90
2019-04-11T07:31:33.761Z,20.85
2019-04-11T07:32:34.270Z,20.72
2019-04-11T07:33:33.735Z,20.69
2019-04-11T07:34:36.193Z,20.60
2019-04-11T07:35:33.759Z,20.59
2019-04-11T07:36:33.922Z,20.52
2019-04-11T07:37:33.697Z,20.47
2019-04-11T07:38:33.944Z,20.44
2019-04-11T07:39:33.761Z,20.19
2019-04-11T07:40:35.132Z,20.11
2019-04-11T07:41:34.012Z,20.06
2019-04-11T07:42:35.759Z,20.02
2019-04-11T07:43:33.660Z,19.99
2019-04-11T07:44:34.087Z,19.81
2019-04-11T07:45:34.380Z,19.69
2019-04-11T07:46:33.592Z,19.49
2019-04-11T07:47:33.593Z,19.51
2019-04-11T07:48:33.798Z,19.41
2019-04-11T07:49:33.568Z,19.44
2019-04-11T07:50:33.559Z,19.33
2019-04-11T07:51:34.348Z,19.31
2019-04-11T07:52:34.501Z,19.37
2019-04-11T07:53:33.778Z,19.27
2019-04-11T07:54:34.594Z,19.22
2019-04-11T07:55:34.429Z,19.24
2019-04-11T07:56:33.494Z,19.27
2019-04-11T07:57:33.480Z,19.19
2019-04-11T13:57:35.725Z,16.51
2019-04-11T14:06:47.148Z,16.49
2019-04-11T14:30:08.916Z,16.16
2019-04-11T14:35:58.701Z,15.95
2019-04-11T14:40:15.848Z,15.94
2019-04-11T14:41:13.010Z,16.01
2019-04-11T14:42:13.058Z,15.92
2019-04-11T14:43:13.667Z,15.97
2019-04-11T14:47:08.142Z,15.83
2019-04-11T14:50:45.162Z,15.79
2019-04-11T14:51:46.270Z,15.72
2019-04-11T14:55:31.498Z,15.72
2019-04-11T15:04:33.159Z,15.62
2019-04-11T15:15:49.972Z,15.21
2019-04-11T15:27:00.791Z,15.07
2019-04-11T15:30:32.811Z,15.03
2019-04-11T15:31:43.315Z,14.89
2019-04-11T15:40:49.824Z,14.60
